Time;durP1;ratioP1;P1;durP2;ratioP2;P2;SDS_P1;SDS_P2;PMS_P1;PMS_P2;Temp;Humidity;BMP_temperature;BMP_pressure;BME280_temperature;BME280_humidity;BME280_pressure;Samples;Min_cycle;Max_cycle;Signal;HPM_P1;HPM_P2
2023/06/23 00:02:01;;;;;;;12.93;4.95;;;;;;;12.61;100.00;100598.88;5029732;28;20063;-59
2023/06/23 00:04:33;;;;;;;12.00;4.80;;;;;;;12.72;100.00;100597.75;5039806;28;20044;-60
2023/06/23 00:07:05;;;;;;;9.70;4.70;;;;;;;12.62;100.00;100548.16;5029615;28;20147;-61
2023/06/23 00:09:37;;;;;;;7.45;4.40;;;;;;;12.93;100.00;100591.22;5029621;28;20165;-59
2023/06/23 00:12:09;;;;;;;12.20;4.70;;;;;;;12.99;100.00;100590.22;5040090;28;20054;-60
2023/06/23 00:14:42;;;;;;;10.32;4.28;;;;;;;13.10;100.00;100584.75;5029839;28;20051;-61
2023/06/23 00:17:16;;;;;;;7.57;3.60;;;;;;;13.22;100.00;100591.50;5039818;28;20054;-58
2023/06/23 00:19:48;;;;;;;5.93;3.55;;;;;;;13.32;100.00;100588.66;5028865;28;20071;-60
2023/06/23 00:22:20;;;;;;;11.50;4.10;;;;;;;13.35;100.00;100593.84;5039732;28;20056;-60
2023/06/23 00:24:53;;;;;;;8.10;3.75;;;;;;;13.48;100.00;100577.78;5030259;28;20059;-60
2023/06/23 00:27:26;;;;;;;8.57;3.92;;;;;;;13.52;100.00;100582.94;5040495;28;20094;-60
2023/06/23 00:29:58;;;;;;;6.82;3.70;;;;;;;13.62;100.00;100583.59;5029721;28;20048;-60
2023/06/23 00:32:32;;;;;;;6.70;3.45;;;;;;;13.80;100.00;100590.16;5037834;28;20510;-59
2023/06/23 00:35:04;;;;;;;12.30;3.75;;;;;;;13.80;100.00;100538.50;5029588;28;20041;-59
2023/06/23 00:37:37;;;;;;;9.05;3.55;;;;;;;14.05;100.00;100585.16;5029822;28;20057;-59
2023/06/23 00:40:11;;;;;;;5.03;3.20;;;;;;;13.95;100.00;100545.16;5038305;28;20458;-61
2023/06/23 00:42:48;;;;;;;6.57;3.70;;;;;;;14.23;100.00;100579.44;5029155;28;20052;-59
2023/06/23 00:45:23;;;;;;;6.38;3.17;;;;;;;14.50;100.00;100587.47;5038991;28;20454;-59
2023/06/23 00:47:58;;;;;;;8.68;3.45;;;;;;;14.64;100.00;100584.50;5030195;28;20046;-60
2023/06/23 00:50:30;;;;;;;6.72;3.03;;;;;;;14.70;100.00;100583.47;5020100;28;20059;-59
2023/06/23 00:53:03;;;;;;;5.23;3.63;;;;;;;14.71;100.00;100570.28;5028666;28;20060;-59
2023/06/23 00:55:37;;;;;;;5.17;2.80;;;;;;;14.92;100.00;100589.81;5030514;28;20341;-61
2023/06/23 00:58:09;;;;;;;6.93;3.23;;;;;;;14.95;100.00;100589.75;5038708;28;20344;-60
2023/06/23 01:00:42;;;;;;;6.00;3.27;;;;;;;14.96;100.00;100580.94;5028946;28;20283;-61
2023/06/23 01:03:16;;;;;;;9.33;3.17;;;;;;;15.00;100.00;100586.97;5038961;28;20761;-60
2023/06/23 01:05:51;;;;;;;5.40;3.07;;;;;;;15.03;98.95;100584.28;5029435;28;20286;-60
2023/06/23 01:08:37;;;;;;;4.13;2.83;;;;;;;14.98;99.58;100579.13;5034771;28;20843;-58
2023/06/23 01:11:16;;;;;;;9.30;2.60;;;;;;;15.06;99.02;100574.50;5029163;28;20824;-60
2023/06/23 01:13:54;;;;;;;6.28;3.33;;;;;;;14.91;98.60;100535.50;5029069;28;21220;-60
2023/06/23 01:16:33;;;;;;;5.73;2.90;;;;;;;15.21;98.92;100575.81;5040005;28;20048;-61
2023/06/23 01:19:18;;;;;;;7.88;2.90;;;;;;;15.34;98.70;100581.56;5029700;28;20913;-59
2023/06/23 01:22:03;;;;;;;6.90;3.20;;;;;;;15.39;98.95;100579.63;5028992;28;20044;-59
2023/06/23 01:24:52;;;;;;;6.00;2.97;;;;;;;15.60;98.83;100577.22;5034362;28;20267;-59
2023/06/23 01:27:53;;;;;;;6.53;3.47;;;;;;;15.57;96.00;100572.06;5039902;28;20287;-59
2023/06/23 01:30:29;;;;;;;6.97;2.73;;;;;;;15.60;96.00;100578.13;5039871;28;20049;-59
2023/06/23 01:33:08;;;;;;;7.57;2.90;;;;;;;15.66;95.18;100566.50;5029457;28;20374;-60
2023/06/23 01:35:46;;;;;;;6.10;2.60;;;;;;;15.70;94.96;100557.59;5029805;28;20841;-60
2023/06/23 01:38:27;;;;;;;5.40;2.80;;;;;;;15.70;93.87;100560.25;5035813;28;20298;-60
2023/06/23 01:41:01;;;;;;;5.90;2.60;;;;;;;15.67;92.92;100547.16;5029145;28;20383;-58
2023/06/23 01:43:37;;;;;;;4.97;2.87;;;;;;;15.76;92.27;100556.56;5039505;28;20278;-63
2023/06/23 01:46:15;;;;;;;6.20;2.60;;;;;;;15.76;91.66;100562.69;5029006;28;20307;-61
2023/06/23 01:48:51;;;;;;;5.57;2.47;;;;;;;15.91;91.08;100570.09;5029081;28;20279;-63
2023/06/23 01:51:24;;;;;;;6.37;2.40;;;;;;;16.05;91.07;100563.47;5038906;28;20289;-60
2023/06/23 01:53:58;;;;;;;8.10;2.43;;;;;;;16.21;90.11;100566.47;5039392;28;20386;-59
2023/06/23 01:56:31;;;;;;;13.57;2.53;;;;;;;16.19;89.16;100555.97;5042640;28;20339;-60
2023/06/23 01:59:04;;;;;;;6.83;2.60;;;;;;;16.27;89.55;100564.44;5028867;28;20294;-58
2023/06/23 02:01:39;;;;;;;5.77;2.47;;;;;;;16.39;88.17;100553.47;5028912;28;20386;-58
2023/06/23 02:04:12;;;;;;;8.37;2.80;;;;;;;16.54;88.91;100562.63;5039054;28;20291;-58
2023/06/23 02:06:48;;;;;;;10.20;2.83;;;;;;;16.66;87.16;100569.22;5034717;28;20286;-60
2023/06/23 02:09:24;;;;;;;5.80;2.67;;;;;;;16.41;87.46;100531.47;5043002;28;20344;-60
2023/06/23 02:11:59;;;;;;;6.60;2.50;;;;;;;16.75;87.11;100566.25;5028845;28;20279;-60
2023/06/23 02:14:32;;;;;;;7.27;2.57;;;;;;;16.88;88.03;100563.19;5045965;28;20290;-59
2023/06/23 02:17:14;;;;;;;12.60;2.40;;;;;;;17.05;86.27;100558.13;5035562;28;20287;-59
2023/06/23 02:19:51;;;;;;;12.43;2.50;;;;;;;17.11;86.29;100563.16;5029055;28;20299;-60
2023/06/23 02:22:27;;;;;;;12.53;2.70;;;;;;;17.27;85.66;100547.56;5038665;28;20290;-58
2023/06/23 02:25:00;;;;;;;7.00;2.93;;;;;;;17.58;83.12;100557.78;5028868;28;20297;-59
2023/06/23 02:27:33;;;;;;;6.73;2.57;;;;;;;17.66;84.05;100550.41;5038944;28;20291;-62
2023/06/23 02:30:07;;;;;;;10.33;3.10;;;;;;;17.80;84.40;100546.38;5028528;28;20313;-60
2023/06/23 02:32:40;;;;;;;7.33;1.70;;;;;;;17.87;82.02;100542.53;5028502;28;20295;-59
2023/06/23 02:35:14;;;;;;;9.43;2.50;;;;;;;17.93;80.84;100542.28;5038629;28;20279;-62
2023/06/23 02:37:51;;;;;;;9.77;2.60;;;;;;;17.86;81.37;100543.47;5028057;28;21867;-60
2023/06/23 02:40:26;;;;;;;5.70;2.30;;;;;;;17.64;80.07;100541.66;5037878;28;20311;-63
2023/06/23 02:43:05;;;;;;;5.50;1.97;;;;;;;17.58;80.77;100549.84;5028297;28;20828;-59
2023/06/23 02:45:41;;;;;;;4.33;2.20;;;;;;;17.62;82.00;100538.25;5028774;28;20301;-60
2023/06/23 02:48:20;;;;;;;5.97;2.00;;;;;;;17.77;80.79;100541.16;5038982;28;20789;-60
2023/06/23 02:50:56;;;;;;;2.95;1.98;;;;;;;17.89;80.49;100535.41;5028625;28;20325;-60
2023/06/23 02:53:36;;;;;;;3.83;2.07;;;;;;;17.96;80.38;100536.84;5038670;28;20135;-63
2023/06/23 02:56:17;;;;;;;6.70;2.20;;;;;;;18.13;79.51;100540.56;5028465;28;20326;-59
2023/06/23 02:58:51;;;;;;;5.50;2.30;;;;;;;18.39;80.91;100532.34;5028484;28;20700;-60
2023/06/23 03:01:26;;;;;;;5.73;2.40;;;;;;;18.50;79.18;100516.84;5038423;28;20777;-59
2023/06/23 03:04:00;;;;;;;9.83;2.53;;;;;;;18.85;78.50;100527.66;5028281;28;21008;-60
2023/06/23 03:06:36;;;;;;;5.67;2.10;;;;;;;19.02;76.56;100528.63;5039407;28;20283;-60
2023/06/23 03:09:07;;;;;;;3.47;1.90;;;;;;;19.01;77.16;100527.78;5031961;28;20773;-61
2023/06/23 03:11:39;;;;;;;6.57;2.40;;;;;;;18.91;77.42;100516.75;5032022;28;20282;-61
2023/06/23 03:14:11;;;;;;;2.90;2.07;;;;;;;18.89;75.02;100529.19;5041114;28;20410;-60
2023/06/23 03:16:48;;;;;;;2.80;1.90;;;;;;;18.86;75.37;100524.06;5031655;28;20291;-60
2023/06/23 03:19:35;;;;;;;4.60;2.33;;;;;;;18.86;77.07;100502.88;5041860;28;20835;-60
2023/06/23 03:22:10;;;;;;;7.63;2.13;;;;;;;19.11;77.08;100522.91;5030896;28;20370;-59
2023/06/23 03:24:45;;;;;;;4.57;2.00;;;;;;;19.29;74.33;100527.31;5031529;28;21025;-60
2023/06/23 03:27:18;;;;;;;5.23;1.90;;;;;;;19.40;74.29;100517.06;5042353;28;20278;-61
2023/06/23 03:29:54;;;;;;;5.13;1.93;;;;;;;19.46;72.68;100512.38;5032291;28;20299;-62
2023/06/23 03:32:30;;;;;;;7.67;1.80;;;;;;;19.64;72.42;100516.75;5042183;28;20286;-58
2023/06/23 03:35:08;;;;;;;8.67;2.50;;;;;;;19.52;72.17;100509.41;5030945;28;20286;-58
2023/06/23 03:37:46;;;;;;;14.00;3.10;;;;;;;19.46;72.21;100507.09;5031954;28;20283;-59
2023/06/23 03:40:19;;;;;;;11.30;2.43;;;;;;;19.48;74.30;100506.06;5041149;28;20326;-59
2023/06/23 03:42:55;;;;;;;5.80;2.20;;;;;;;19.28;74.05;100503.56;5031045;28;20317;-60
2023/06/23 03:45:30;;;;;;;6.10;2.37;;;;;;;19.09;72.83;100514.16;5041868;28;20365;-59
2023/06/23 03:48:05;;;;;;;5.03;2.20;;;;;;;18.88;73.02;100511.59;5030631;28;20290;-60
2023/06/23 03:50:41;;;;;;;6.57;2.43;;;;;;;18.60;74.06;100489.97;5031362;28;20619;-60
2023/06/23 03:53:15;;;;;;;9.23;2.60;;;;;;;18.57;74.45;100505.97;5041486;28;20348;-61
2023/06/23 03:55:49;;;;;;;6.13;2.40;;;;;;;18.47;75.17;100506.41;5031050;28;20291;-61
2023/06/23 03:58:21;;;;;;;10.97;2.20;;;;;;;18.41;75.65;100482.88;5040670;28;21134;-60
2023/06/23 04:00:56;;;;;;;5.97;2.20;;;;;;;18.50;74.68;100490.38;5030797;28;20776;-60
2023/06/23 04:03:29;;;;;;;7.67;2.13;;;;;;;18.25;75.97;100468.63;5047942;28;20286;-60
2023/06/23 04:06:05;;;;;;;8.80;2.43;;;;;;;18.53;77.18;100492.03;5037490;28;20274;-60
2023/06/23 04:08:38;;;;;;;9.00;2.40;;;;;;;18.46;76.20;100494.09;5031173;28;20287;-61
2023/06/23 04:11:13;;;;;;;15.43;2.87;;;;;;;18.43;76.95;100503.97;5045472;28;20286;-59
2023/06/23 04:13:46;;;;;;;8.73;3.03;;;;;;;18.44;77.22;100495.94;5039343;28;20390;-60
2023/06/23 04:16:19;;;;;;;5.17;1.90;;;;;;;18.32;75.67;100504.44;5040830;28;20337;-60
2023/06/23 04:18:53;;;;;;;7.10;2.27;;;;;;;18.14;76.14;100507.91;5029657;28;20762;-59
2023/06/23 04:21:27;;;;;;;8.57;2.43;;;;;;;17.97;76.27;100493.66;5040669;28;20283;-61
2023/06/23 04:24:02;;;;;;;7.03;2.40;;;;;;;17.62;76.93;100464.25;5031142;28;20279;-61
2023/06/23 04:26:37;;;;;;;12.53;3.07;;;;;;;17.76;78.33;100497.16;5037849;28;20302;-61
2023/06/23 04:29:12;;;;;;;9.23;2.70;;;;;;;17.82;76.96;100492.53;5039775;28;20355;-60
2023/06/23 04:31:46;;;;;;;8.00;2.80;;;;;;;17.78;77.87;100490.03;5030223;28;20279;-59
2023/06/23 04:34:18;;;;;;;6.63;2.50;;;;;;;17.75;77.00;100492.81;5040362;28;20885;-61
2023/06/23 04:36:58;;;;;;;7.33;2.37;;;;;;;17.76;77.64;100495.38;5029441;28;20299;-60
2023/06/23 04:39:33;;;;;;;9.23;2.90;;;;;;;17.77;78.65;100493.59;5040288;28;20331;-59
2023/06/23 04:42:10;;;;;;;6.93;2.40;;;;;;;17.72;79.44;100490.28;5029598;28;20291;-60
2023/06/23 04:44:51;;;;;;;7.17;2.77;;;;;;;17.63;78.01;100502.97;5030188;28;20290;-61
2023/06/23 04:47:27;;;;;;;12.60;2.80;;;;;;;17.52;78.18;100494.59;5040423;28;20304;-59
2023/06/23 04:50:07;;;;;;;5.60;2.43;;;;;;;17.53;78.79;100493.72;5039936;28;20813;-60
2023/06/23 04:52:47;;;;;;;7.13;2.60;;;;;;;17.51;77.99;100492.91;5032688;28;20287;-59
2023/06/23 04:55:21;;;;;;;9.60;3.13;;;;;;;17.48;78.35;100500.97;5052733;28;21229;-60
2023/06/23 04:57:56;;;;;;;4.33;2.10;;;;;;;16.89;78.71;100414.47;5029805;28;20306;-59
2023/06/23 05:00:28;;;;;;;8.07;2.90;;;;;;;17.34;79.50;100490.09;5040213;28;21055;-60
2023/06/23 05:03:02;;;;;;;14.50;2.73;;;;;;;17.43;79.94;100497.66;5030121;28;20820;-61
2023/06/23 05:05:36;;;;;;;8.90;2.80;;;;;;;17.34;80.12;100492.72;5038121;28;20295;-60
2023/06/23 05:08:12;;;;;;;10.37;3.13;;;;;;;17.36;80.72;100498.81;5039871;28;20301;-60
2023/06/23 05:10:46;;;;;;;13.57;2.73;;;;;;;17.39;80.42;100498.69;5029465;28;20397;-60
2023/06/23 05:13:21;;;;;;;9.30;3.47;;;;;;;17.43;81.55;100497.66;5039526;28;20307;-59
2023/06/23 05:15:53;;;;;;;9.10;3.27;;;;;;;17.50;80.25;100498.25;5029385;28;20336;-60
2023/06/23 05:18:26;;;;;;;7.00;2.50;;;;;;;17.47;79.90;100491.31;5039479;28;20271;-60
2023/06/23 05:20:59;;;;;;;4.43;2.70;;;;;;;17.43;79.64;100495.88;5029470;28;20267;-60
2023/06/23 05:23:35;;;;;;;6.47;2.97;;;;;;;17.52;79.47;100488.47;5039911;28;20283;-58
2023/06/23 05:26:24;;;;;;;5.13;2.90;;;;;;;17.71;80.21;100483.28;5038906;28;20282;-60
2023/06/23 05:28:57;;;;;;;10.27;2.90;;;;;;;17.76;78.81;100481.31;5028823;28;20278;-59
2023/06/23 05:31:31;;;;;;;5.30;2.47;;;;;;;17.84;79.55;100489.78;5040056;28;20311;-58
2023/06/23 05:34:07;;;;;;;10.13;3.40;;;;;;;17.86;79.61;100487.94;5029333;28;20373;-61
2023/06/23 05:36:40;;;;;;;14.47;3.70;;;;;;;17.87;79.31;100484.38;5028974;28;20305;-59
2023/06/23 05:39:16;;;;;;;12.93;3.37;;;;;;;18.14;79.85;100481.44;5035763;28;20293;-59
2023/06/23 05:41:48;;;;;;;9.10;3.30;;;;;;;18.54;77.75;100486.66;5029786;28;20375;-58
2023/06/23 05:44:19;;;;;;;6.67;2.53;;;;;;;18.89;75.67;100481.53;5039286;28;20283;-58
2023/06/23 05:46:55;;;;;;;9.17;2.50;;;;;;;18.95;75.67;100481.25;5028664;28;20291;-60
2023/06/23 05:49:31;;;;;;;8.53;3.00;;;;;;;18.93;74.46;100483.13;5039227;28;20310;-60
2023/06/23 05:52:04;;;;;;;14.63;3.53;;;;;;;18.86;75.46;100481.69;5028907;28;20291;-59
2023/06/23 05:54:42;;;;;;;10.20;3.70;;;;;;;18.76;76.79;100480.41;5028743;28;20287;-58
2023/06/23 05:57:25;;;;;;;4.90;2.80;;;;;;;18.94;76.18;100479.53;5038800;28;20290;-60
2023/06/23 06:00:06;;;;;;;9.47;2.83;;;;;;;19.03;78.01;100482.69;5029824;28;20303;-58
2023/06/23 06:02:40;;;;;;;6.87;3.10;;;;;;;19.08;76.20;100488.63;5029469;28;20383;-59
2023/06/23 06:05:15;;;;;;;6.43;3.10;;;;;;;18.99;75.27;100486.41;5039050;28;20286;-61
2023/06/23 06:07:48;;;;;;;7.93;2.73;;;;;;;18.91;76.76;100490.28;5028518;28;20352;-61
2023/06/23 06:10:22;;;;;;;11.77;3.10;;;;;;;18.96;75.57;100477.66;5038890;28;20676;-59
2023/06/23 06:12:54;;;;;;;11.50;3.53;;;;;;;19.02;77.03;100480.97;5028825;28;20602;-59
2023/06/23 06:15:27;;;;;;;12.40;2.93;;;;;;;19.06;77.39;100461.34;5038805;28;20630;-60
2023/06/23 06:17:59;;;;;;;14.20;3.43;;;;;;;19.23;76.72;100464.03;5030205;28;20303;-61
2023/06/23 06:20:34;;;;;;;9.47;3.37;;;;;;;19.24;74.86;100465.75;5039824;28;20287;-63
2023/06/23 06:23:08;;;;;;;7.47;3.10;;;;;;;19.27;76.11;100476.22;5028464;28;21337;-58
2023/06/23 06:25:57;;;;;;;5.35;2.97;;;;;;;19.44;75.37;100483.31;5028786;28;20842;-59
2023/06/23 06:28:30;;;;;;;6.63;2.90;;;;;;;19.35;73.95;100471.38;5039528;28;20048;-57
2023/06/23 06:31:03;;;;;;;7.17;3.00;;;;;;;19.42;74.12;100473.72;5028843;28;20367;-59
2023/06/23 06:33:35;;;;;;;6.13;3.07;;;;;;;19.51;73.36;100467.97;5033324;28;20282;-59
2023/06/23 06:36:11;;;;;;;6.43;3.03;;;;;;;19.61;73.37;100469.22;5038772;28;20301;-60
2023/06/23 06:38:45;;;;;;;15.10;3.03;;;;;;;19.46;73.69;100464.69;5029311;28;20282;-61
2023/06/23 06:41:20;;;;;;;14.53;3.47;;;;;;;19.39;74.46;100467.66;5039674;28;20869;-58
2023/06/23 06:43:57;;;;;;;10.97;2.73;;;;;;;19.44;74.00;100466.56;5030516;28;20398;-60
2023/06/23 06:46:29;;;;;;;10.57;2.53;;;;;;;19.49;73.65;100470.69;5042845;28;20298;-59
2023/06/23 06:49:02;;;;;;;5.50;2.60;;;;;;;19.38;74.42;100463.28;5032504;28;20317;-58
2023/06/23 06:51:35;;;;;;;7.57;2.63;;;;;;;19.52;75.07;100469.66;5041600;28;20303;-60
2023/06/23 06:54:06;;;;;;;5.30;2.40;;;;;;;19.58;72.63;100464.94;5032102;28;20354;-59
2023/06/23 06:56:41;;;;;;;6.43;2.50;;;;;;;19.45;71.08;100468.28;5032416;28;20311;-58
2023/06/23 06:59:12;;;;;;;6.27;2.10;;;;;;;19.43;71.83;100475.44;5042443;28;20294;-58
2023/06/23 07:01:45;;;;;;;4.23;2.30;;;;;;;19.47;71.42;100471.69;5031862;28;20290;-58
2023/06/23 07:04:17;;;;;;;3.80;2.17;;;;;;;19.50;71.74;100467.13;5041943;28;20294;-56
2023/06/23 07:06:54;;;;;;;4.83;2.07;;;;;;;19.46;71.42;100454.09;5032210;28;20301;-57
2023/06/23 07:09:26;;;;;;;6.07;2.17;;;;;;;19.34;72.40;100467.00;5041375;28;20285;-57
2023/06/23 07:12:01;;;;;;;5.40;2.03;;;;;;;19.29;73.30;100458.41;5032085;28;20991;-58
2023/06/23 07:14:33;;;;;;;12.60;2.27;;;;;;;19.26;72.87;100477.13;5042363;28;20847;-58
2023/06/23 07:17:04;;;;;;;9.63;2.53;;;;;;;19.05;73.58;100480.84;5031725;28;20278;-59
2023/06/23 07:19:37;;;;;;;11.23;2.53;;;;;;;18.41;75.34;100394.69;5031188;28;20315;-59
2023/06/23 07:22:09;;;;;;;11.17;2.57;;;;;;;18.88;75.22;100477.19;5041739;28;20401;-57
2023/06/23 07:24:54;;;;;;;6.10;2.67;;;;;;;18.88;76.30;100479.84;4988997;28;21908;-59
2023/06/23 07:27:28;;;;;;;8.17;2.07;;;;;;;18.85;75.00;100480.00;4998923;28;20302;-58
2023/06/23 07:29:59;;;;;;;2.77;1.73;;;;;;;18.89;73.75;100476.25;4989002;28;20727;-58
2023/06/23 07:32:33;;;;;;;7.27;2.17;;;;;;;18.82;73.27;100463.38;4999623;28;20284;-58
2023/06/23 07:35:06;;;;;;;5.77;2.30;;;;;;;18.83;74.71;100476.53;4988527;28;20359;-58
2023/06/23 07:37:40;;;;;;;3.67;1.97;;;;;;;18.88;74.76;100474.53;4988562;28;21031;-60
2023/06/23 07:40:12;;;;;;;7.63;2.10;;;;;;;18.79;74.38;100456.44;4998659;28;20296;-58
2023/06/23 07:42:45;;;;;;;4.90;2.33;;;;;;;18.82;74.08;100469.56;4988642;28;21167;-57
2023/06/23 07:45:15;;;;;;;13.87;2.87;;;;;;;18.74;74.83;100472.50;4999209;28;20280;-59
2023/06/23 07:47:46;;;;;;;5.67;2.00;;;;;;;18.64;75.32;100460.63;4989083;28;21133;-59
2023/06/23 07:50:17;;;;;;;5.73;2.20;;;;;;;18.73;73.81;100475.25;4998802;28;20320;-58
2023/06/23 07:52:54;;;;;;;10.30;2.50;;;;;;;18.45;75.03;100423.59;4988772;28;20280;-59
2023/06/23 07:55:25;;;;;;;7.90;2.47;;;;;;;18.65;75.39;100477.38;4998399;28;20291;-61
2023/06/23 07:57:58;;;;;;;7.23;2.50;;;;;;;18.54;75.82;100486.66;4988092;28;20359;-60
2023/06/23 08:00:29;;;;;;;7.97;2.50;;;;;;;18.49;76.11;100483.38;4998386;28;20288;-58
2023/06/23 08:06:47;;;;;;;8.60;2.80;;;;;;;18.54;76.30;100484.00;4946839;28;20395;-58
2023/06/23 08:09:19;;;;;;;10.27;2.67;;;;;;;18.46;76.49;100483.50;4959487;28;20285;-57
2023/06/23 08:11:54;;;;;;;7.33;2.00;;;;;;;18.32;76.69;100483.28;4950117;28;20296;-61
2023/06/23 08:14:28;;;;;;;9.90;2.57;;;;;;;18.31;76.99;100485.06;4955862;28;20392;-58
2023/06/23 08:17:00;;;;;;;11.53;2.40;;;;;;;18.25;76.91;100495.06;4939526;28;20286;-59
2023/06/23 08:19:32;;;;;;;5.63;2.00;;;;;;;18.17;77.22;100499.81;4949458;28;20296;-58
2023/06/23 08:22:07;;;;;;;8.60;2.50;;;;;;;18.06;77.58;100493.22;4939801;28;20488;-60
2023/06/23 08:24:39;;;;;;;12.17;2.20;;;;;;;17.65;77.88;100448.28;4939715;28;20812;-60
2023/06/23 08:27:12;;;;;;;6.63;2.17;;;;;;;17.75;78.71;100493.66;4949609;28;21031;-59
2023/06/23 08:29:48;;;;;;;8.37;2.57;;;;;;;17.74;79.30;100505.16;4940396;28;20310;-58
2023/06/23 08:32:19;;;;;;;9.07;2.40;;;;;;;17.76;79.75;100503.31;4949754;28;20298;-59
2023/06/23 08:34:51;;;;;;;11.33;2.40;;;;;;;17.83;79.71;100509.22;4939751;28;20777;-59
2023/06/23 08:37:23;;;;;;;11.37;2.83;;;;;;;17.69;80.13;100460.41;4948568;28;20278;-57
2023/06/23 08:39:54;;;;;;;10.00;2.40;;;;;;;18.09;79.52;100511.59;4939620;28;20278;-58
2023/06/23 08:42:27;;;;;;;6.53;2.17;;;;;;;18.01;78.20;100489.94;4963990;28;20319;-59
2023/06/23 08:45:04;;;;;;;13.63;2.50;;;;;;;17.85;78.39;100496.81;5009442;28;20314;-57
2023/06/23 08:47:42;;;;;;;4.80;2.00;;;;;;;17.79;78.73;100512.88;5012808;28;20395;-58
2023/06/23 08:50:15;;;;;;;9.65;2.13;;;;;;;17.73;79.47;100515.81;5020331;28;20289;-57
2023/06/23 08:52:47;;;;;;;6.20;2.37;;;;;;;17.71;79.88;100520.28;5006678;28;20742;-57
2023/06/23 08:55:19;;;;;;;5.90;2.10;;;;;;;17.65;80.21;100511.69;5019941;28;20321;-59
2023/06/23 08:57:51;;;;;;;14.70;2.77;;;;;;;17.64;80.27;100519.66;5009470;28;20588;-58
2023/06/23 09:00:25;;;;;;;11.70;2.70;;;;;;;17.66;80.58;100518.69;5019637;28;20296;-58
2023/06/23 09:02:56;;;;;;;7.73;1.67;;;;;;;17.67;80.02;100520.41;5009847;28;20631;-58
2023/06/23 09:05:28;;;;;;;7.97;2.43;;;;;;;17.67;80.53;100519.53;5019419;28;20919;-58
2023/06/23 09:08:00;;;;;;;12.50;2.23;;;;;;;17.62;79.63;100527.69;4993130;28;20326;-58
2023/06/23 09:10:32;;;;;;;6.73;2.73;;;;;;;17.50;80.36;100522.91;5019003;28;20296;-58
2023/06/23 09:13:24;;;;;;;5.47;2.10;;;;;;;17.46;80.16;100521.28;4995437;28;20288;-58
2023/06/23 09:15:57;;;;;;;8.80;2.40;;;;;;;17.33;80.35;100518.28;5027483;28;20363;-59
2023/06/23 09:18:38;;;;;;;8.43;2.27;;;;;;;17.27;80.68;100525.59;5038950;28;20286;-56
2023/06/23 09:21:10;;;;;;;8.20;2.67;;;;;;;17.14;81.65;100515.50;5029014;28;20294;-57
2023/06/23 09:24:02;;;;;;;3.40;1.87;;;;;;;16.91;82.26;100492.66;5029373;28;20331;-59
2023/06/23 09:26:47;;;;;;;12.00;2.37;;;;;;;17.06;83.17;100501.75;5035039;28;20293;-58
2023/06/23 09:29:20;;;;;;;3.33;2.00;;;;;;;16.88;82.52;100473.47;5038334;28;20870;-58
2023/06/23 09:31:54;;;;;;;12.47;2.67;;;;;;;16.95;82.75;100494.28;5028562;28;20287;-57
2023/06/23 09:34:31;;;;;;;22.13;3.03;;;;;;;16.97;83.30;100516.19;5038493;28;20366;-58
2023/06/23 09:37:09;;;;;;;11.43;2.87;;;;;;;16.61;83.44;100476.19;5027882;28;20291;-58
2023/06/23 09:39:41;;;;;;;4.00;1.87;;;;;;;16.72;83.88;100518.84;5029224;28;20287;-58
2023/06/23 09:42:13;;;;;;;5.60;2.40;;;;;;;16.51;84.70;100493.28;5038869;28;20290;-57
2023/06/23 09:44:46;;;;;;;6.27;2.20;;;;;;;15.86;84.70;100419.19;5028839;28;20370;-58
2023/06/23 09:47:20;;;;;;;3.63;1.93;;;;;;;16.43;85.90;100516.47;5038265;28;20366;-57
2023/06/23 09:49:52;;;;;;;6.13;2.23;;;;;;;16.38;86.12;100520.13;5028756;28;20291;-59
2023/06/23 09:52:26;;;;;;;6.43;2.30;;;;;;;16.27;86.90;100503.81;5038317;28;20300;-58
2023/06/23 09:54:58;;;;;;;10.87;2.50;;;;;;;16.30;87.16;100516.91;5027991;28;20275;-58
2023/06/23 09:57:31;;;;;;;6.07;2.20;;;;;;;16.25;87.35;100516.22;5038168;28;20371;-57
2023/06/23 10:00:05;;;;;;;12.07;2.60;;;;;;;16.19;87.90;100516.41;5028156;28;20308;-58
2023/06/23 10:02:41;;;;;;;9.77;2.77;;;;;;;15.85;88.15;100478.09;5028293;28;20287;-58
2023/06/23 10:05:13;;;;;;;6.43;2.40;;;;;;;15.79;89.00;100504.63;5038105;28;20301;-58
2023/06/23 10:07:45;;;;;;;9.20;3.27;;;;;;;15.74;89.61;100527.63;5028061;28;20297;-57
2023/06/23 10:10:17;;;;;;;19.60;3.63;;;;;;;15.59;90.62;100520.22;5039022;28;20305;-58
2023/06/23 10:12:52;;;;;;;13.00;2.83;;;;;;;15.14;91.33;100481.28;5028744;28;20397;-58
2023/06/23 10:15:25;;;;;;;8.83;2.53;;;;;;;15.14;92.29;100526.03;4965267;28;2006953;-59
2023/06/23 10:17:58;;;;;;;5.30;2.50;;;;;;;14.95;93.22;100526.63;5031146;28;20067;-57
2023/06/23 10:20:30;;;;;;;7.83;2.77;;;;;;;14.86;94.16;100532.13;5043618;28;21462;-59
2023/06/23 10:23:04;;;;;;;10.60;3.13;;;;;;;14.72;94.73;100524.63;5031839;28;20583;-58
2023/06/23 10:25:38;;;;;;;8.33;2.63;;;;;;;14.54;95.36;100525.19;5033125;28;20297;-58
2023/06/23 10:28:13;;;;;;;6.43;2.63;;;;;;;14.43;95.80;100522.84;5042374;28;20283;-58
2023/06/23 10:30:45;;;;;;;4.83;2.63;;;;;;;14.22;96.79;100530.38;5032238;28;20279;-58
2023/06/23 10:33:21;;;;;;;12.70;2.90;;;;;;;14.08;97.57;100524.66;5042482;28;20318;-58
2023/06/23 10:35:57;;;;;;;7.30;2.60;;;;;;;13.39;98.15;100429.28;5032353;28;20279;-57
2023/06/23 10:38:31;;;;;;;4.30;2.60;;;;;;;13.82;98.93;100536.69;5042372;28;20287;-58
2023/06/23 10:41:03;;;;;;;8.07;2.90;;;;;;;13.78;99.67;100545.56;5031346;28;20291;-58
2023/06/23 10:43:38;;;;;;;8.73;2.60;;;;;;;13.72;100.00;100535.19;5038125;28;20390;-59
2023/06/23 10:46:11;;;;;;;8.03;2.33;;;;;;;13.73;100.00;100542.19;5042096;28;20799;-58
2023/06/23 10:48:46;;;;;;;8.90;2.73;;;;;;;13.67;100.00;100542.31;5031652;28;20287;-59
2023/06/23 10:51:18;;;;;;;7.03;2.87;;;;;;;13.60;100.00;100540.75;5041670;28;20369;-59
2023/06/23 10:53:59;;;;;;;9.17;2.40;;;;;;;13.52;100.00;100542.72;5031957;28;20377;-58
2023/06/23 10:56:35;;;;;;;8.30;2.57;;;;;;;13.16;100.00;100503.28;5038311;28;20322;-58
2023/06/23 10:59:30;;;;;;;10.30;3.13;;;;;;;13.35;100.00;100545.72;5031912;28;20762;-59
2023/06/23 11:02:18;;;;;;;11.27;2.93;;;;;;;13.24;100.00;100524.94;5006458;28;20298;-59
2023/06/23 11:04:57;;;;;;;9.27;2.83;;;;;;;13.33;100.00;100548.41;5021410;28;20292;-58
2023/06/23 11:07:28;;;;;;;6.50;2.90;;;;;;;13.26;100.00;100546.78;5041986;28;20279;-59
2023/06/23 11:10:05;;;;;;;5.73;2.70;;;;;;;13.22;100.00;100547.72;5020631;28;20049;-60
2023/06/23 11:12:44;;;;;;;6.83;2.50;;;;;;;13.20;100.00;100549.53;5031191;28;20287;-60
2023/06/23 11:15:20;;;;;;;6.20;2.92;;;;;;;13.21;100.00;100548.66;5041626;28;20382;-58
2023/06/23 11:18:02;;;;;;;11.95;2.88;;;;;;;12.89;100.00;100516.13;5031022;28;20079;-59
2023/06/23 11:20:37;;;;;;;6.47;2.85;;;;;;;13.11;100.00;100552.38;5036466;28;20057;-60
2023/06/23 11:23:09;;;;;;;7.43;2.90;;;;;;;13.07;100.00;100545.47;5041562;28;20151;-60
2023/06/23 11:25:45;;;;;;;4.68;2.72;;;;;;;13.02;100.00;100547.31;5031414;28;20099;-59
2023/06/23 11:28:35;;;;;;;7.18;3.25;;;;;;;12.90;100.00;100538.84;5040736;28;20060;-56
2023/06/23 11:31:12;;;;;;;4.78;2.70;;;;;;;12.90;100.00;100554.56;5030874;28;20455;-59
2023/06/23 11:33:45;;;;;;;5.45;2.92;;;;;;;12.86;100.00;100563.38;5031068;28;20059;-59
2023/06/23 11:36:19;;;;;;;4.43;2.95;;;;;;;12.81;100.00;100560.00;5040841;28;20432;-59
2023/06/23 11:38:52;;;;;;;4.90;2.88;;;;;;;12.78;100.00;100565.31;5030984;28;20114;-59
2023/06/23 11:41:28;;;;;;;5.25;2.80;;;;;;;12.79;100.00;100561.78;5028811;28;20191;-59
2023/06/23 11:44:05;;;;;;;10.38;3.30;;;;;;;12.73;100.00;100569.78;5031260;28;20052;-60
2023/06/23 11:46:37;;;;;;;9.18;3.63;;;;;;;12.61;100.00;100577.91;5030914;28;20071;-58
2023/06/23 11:49:12;;;;;;;10.60;3.83;;;;;;;12.40;100.00;100566.91;5041295;28;20075;-58
2023/06/23 11:51:46;;;;;;;8.32;3.80;;;;;;;12.22;100.00;100552.41;5030732;28;20808;-60
2023/06/23 11:54:18;;;;;;;7.22;4.03;;;;;;;12.20;100.00;100571.66;5040440;28;20475;-59
2023/06/23 11:56:53;;;;;;;8.55;4.22;;;;;;;12.13;100.00;100580.53;5030462;28;20058;-59
2023/06/23 11:59:25;;;;;;;10.02;4.43;;;;;;;12.07;100.00;100577.13;5028230;28;20048;-59
2023/06/23 12:02:02;;;;;;;19.27;4.50;;;;;;;11.94;100.00;100580.84;5030166;28;20052;-59